AirNav   Pilot Hours Calculator
 
 625 users online  

0J0 Abbeville Municipal Airport
Abbeville, Alabama, USA

GOING TO ABBEVILLE?


FAA INFORMATION EFFECTIVE 07 NOVEMBER 2019

Location

FAA Identifier: 0J0
Lat/Long: 31-36-00.8000N 085-14-17.9100W
31-36.013333N 085-14.298500W
31.6002222,-85.2383083
(estimated)
Elevation: 463.1 ft. / 141.2 m (surveyed)
Variation: 01W (1985)
From city: 3 miles N of ABBEVILLE, AL
Time zone: UTC -6 (UTC -5 during Daylight Saving Time)
Zip code: 36310

Airport Operations

Airport use: Open to the public
Activation date: 08/1959
Control tower: no
ARTCC: JACKSONVILLE CENTER
FSS: ANNISTON FLIGHT SERVICE STATION
NOTAMs facility: ANB (NOTAM-D service available)
Attendance: UNATNDD
Wind indicator: lighted
Segmented circle: no
Lights: ACTVT MIRL RY 18/36 - CTAF.
Beacon: white-green (lighted land airport)
Operates sunset to sunrise.

Airport Communications

CTAF/UNICOM: 122.8
WX ASOS at DHN (20 nm SW): PHONE 334-983-5999
  • UNICOM IS LCTD AT POLICE STATION.

Nearby radio navigation aids

VOR radial/distance  VOR name  Freq  Var
RRSr026/21.4WIREGRASS VORTAC111.6002E
EUFr193/21.7EUFAULA VORTAC109.2002E
HEYr060/(25.2)HANCHEY VOR110.6003W
OZRr054/31.9CAIRNS VOR/DME111.2003W
EDNr065/(38.6)ENTERPRISE VOR116.6003W

 
NDB name  Hdg/Dist  Freq  Var  ID
BLAAK295/23.134403WIWJ .. .-- .---
HANCHEY061/25.222103WHYE .... -.-- .
LOWE064/29.526903WLOR .-.. --- .-.

Airport Services

Parking: tiedowns
Airframe service: NONE
Powerplant service: NONE

Runway Information

Runway 17/35

Dimensions: 2900 x 80 ft. / 884 x 24 m
Surface: asphalt/concrete/aggregate friction seal coat, in fair condition
Runway edge lights: medium intensity
RUNWAY 17  RUNWAY 35
Latitude: 31-36.249833N31-35.776000N
Longitude: 085-14.336667W085-14.260333W
Elevation: 463.1 ft.462.8 ft.
Traffic pattern: leftleft
Runway heading: 173 magnetic, 172 true353 magnetic, 352 true
Displaced threshold: 300 ft.no
Markings: basic, in fair conditionbasic, in fair condition
Touchdown point: yes, no lightsyes, no lights
Obstructions: 36 ft. pline, 1245 ft. from runway, 36 ft. left of centerline, 29:1 slope to clear
RY 17 APCH SLOPE 50:1 TO DSPLCD THLD.
28 ft. tree, 1390 ft. from runway, 70 ft. left of centerline, 42:1 slope to clear

Airport Ownership and Management from official FAA records

Ownership: Publicly-owned
Owner: CITY OF ABBEVILLE
PO BOX 427
ABBEVILLE, AL 36310
Phone 334-585-6444
Manager: TINA BARNES
PO BOX 427
ABBEVILLE, AL 36310
Phone 334-585-6444

Airport Operational Statistics

Aircraft based on the field: 6
Single engine airplanes: 6
    
Aircraft operations: avg 31/week *
75% military
25% transient general aviation
* for 12-month period ending 17 January 2020

Additional Remarks

FOR CD CTC CAIRNS APCH AT 334-255-8402 OR 334-255-8460, WHEN APCH CLSD CTC JACKSONVILLE ARTCC AT 904-845-1592.

Instrument Procedures

There are no published instrument procedures at 0J0.

Some nearby airports with instrument procedures:

0J6 - Headland Municipal Airport (15 nm S)
KDHN - Dothan Regional Airport (20 nm SW)
11A - Clayton Municipal Airport (21 nm NW)
KBIJ - Early County Airport (21 nm SE)
KEUF - Weedon Field Airport (22 nm N)
 
Loc | Ops | Rwys | IFR | FBO | Links
Com | Nav | Svcs | Stats | Notes
Area around 0J0 (Abbeville Municipal Airport)
 
Road maps at: MapQuest Bing Google
 
Aerial photo
WARNING: Photo may not be current or correct
Aerial photo of 0J0 (Abbeville Municipal Airport)
Do you have a better or more recent aerial photo of Abbeville Municipal Airport that you would like to share? If so, please send us your photo.

 
Sectional chart

 
Airport distance calculator
Flying to Abbeville Municipal Airport? Find the distance to fly.

From to 0J0

Sunrise and sunset
Times for 15-Nov-2019
 Local
(UTC-6)
 Zulu
(UTC)
Morning civil twilight05:4411:44
Sunrise06:1012:10
Sunset16:4122:41
Evening civil twilight17:0723:07

Current date and time
Zulu (UTC)  15-Nov-2019 12:51:25
Local (UTC-6)  15-Nov-2019 06:51:25
 
METAR
KDHN 
20nm SW 
151230Z 36006KT 6SM BR OVC005 08/07 A3013 RMK AO2 T00780067
KBIJ 
21nm SE 
151235Z AUTO 36004KT 10SM OVC005 06/05 A3011 RMK AO2
KHEY 
26nm SW 
151223Z AUTO 35008KT 10SM OVC006 07/07 A3011 RMK AO2 SLP200
KLOR 
30nm SW 
151218Z AUTO 35005KT 9SM OVC006 07/07 A3012 RMK AO2 SLP184
KOZR 
31nm SW 
151236Z AUTO 35008KT 10SM OVC007 08/07 A3010 RMK AO2 SLP196
KSXS 
34nm SW 
151233Z AUTO 11006KT 1 7/8SM BR OVC003 07/07 A3010 RMK AO2 VIS 1 7/8V2 3/4 SLP196
KEDN 
38nm SW 
151235Z AUTO 34004KT 2SM BR OVC005 07/07 A3012 RMK AO2 T00700070
K17J 
40nm SE 
151230Z AUTO 01007KT 10SM OVC006 08/07 A3010 RMK AO2 T00750070
TAF
KDHN 
20nm SW 
151120Z 1512/1612 01006KT 4SM -RA BR OVC004 FM151500 35011KT P6SM -RA OVC007 FM160200 34012KT P6SM OVC015
NOTAMs
Click for the latest NOTAMs
NOTAMs are issued by the DoD/FAA and will open in a separate window not controlled by AirNav.

 

 
 

Aviation Businesses, Services, and Facilities

  
 Business Name 
 
 Contact 
 
 Services / Description 
 
Distance
 
Comments
  
Abbeville Municipal Airport no information available

If you are affiliated with Abbeville Municipal Airport and would like to show here your services, contact info, web link, logo, and more, click here
on airport  
   write
 

Would you like to see your business listed on this page?

 If your business provides an interesting product or service to pilots, flight crews, aircraft, or users of the Abbeville Municipal Airport, you should consider listing it here.  To start the listing process, click on the button below
 
Add a business
 

Other Pages about Abbeville Municipal Airport

Update a link
 
Copyright © AirNav, LLC. All rights reserved. Privacy Policy  Contact